sensor_id;sensor_type;location;lat;lon;timestamp;temperature;humidity
983;DHT22;480;48.124;11.578;2022-09-04T00:01:56;16.10;99.90
983;DHT22;480;48.124;11.578;2022-09-04T00:04:31;16.00;99.90
983;DHT22;480;48.124;11.578;2022-09-04T00:07:10;16.00;99.90
983;DHT22;480;48.124;11.578;2022-09-04T00:09:47;16.00;99.90
983;DHT22;480;48.124;11.578;2022-09-04T00:12:21;16.00;99.90
983;DHT22;480;48.124;11.578;2022-09-04T00:14:54;16.10;99.90
983;DHT22;480;48.124;11.578;2022-09-04T00:17:28;16.10;99.90
983;DHT22;480;48.124;11.578;2022-09-04T00:20:00;16.10;99.90
983;DHT22;480;48.124;11.578;2022-09-04T00:22:32;16.10;99.90
983;DHT22;480;48.124;11.578;2022-09-04T00:25:07;16.10;99.90
983;DHT22;480;48.124;11.578;2022-09-04T00:27:39;16.10;99.90
983;DHT22;480;48.124;11.578;2022-09-04T00:30:13;16.10;99.90
983;DHT22;480;48.124;11.578;2022-09-04T00:32:43;16.10;99.90
983;DHT22;480;48.124;11.578;2022-09-04T00:35:14;15.90;99.90
983;DHT22;480;48.124;11.578;2022-09-04T00:37:48;16.00;99.90
983;DHT22;480;48.124;11.578;2022-09-04T00:40:24;16.00;99.90
983;DHT22;480;48.124;11.578;2022-09-04T00:43:19;15.90;99.90
983;DHT22;480;48.124;11.578;2022-09-04T00:46:04;15.90;99.90
983;DHT22;480;48.124;11.578;2022-09-04T00:49:09;15.80;99.90
983;DHT22;480;48.124;11.578;2022-09-04T00:51:47;15.80;99.90
983;DHT22;480;48.124;11.578;2022-09-04T01:00:24;15.90;99.90
983;DHT22;480;48.124;11.578;2022-09-04T01:03:14;16.00;99.90
983;DHT22;480;48.124;11.578;2022-09-04T01:06:00;16.00;99.90
983;DHT22;480;48.124;11.578;2022-09-04T01:08:41;15.90;99.90
983;DHT22;480;48.124;11.578;2022-09-04T01:11:19;15.90;99.90
983;DHT22;480;48.124;11.578;2022-09-04T01:13:57;16.00;99.90
983;DHT22;480;48.124;11.578;2022-09-04T01:16:33;16.00;99.90
983;DHT22;480;48.124;11.578;2022-09-04T01:19:07;16.10;99.90
983;DHT22;480;48.124;11.578;2022-09-04T01:21:55;16.10;99.90
983;DHT22;480;48.124;11.578;2022-09-04T01:27:43;16.10;99.90
983;DHT22;480;48.124;11.578;2022-09-04T01:30:15;16.20;99.90
983;DHT22;480;48.124;11.578;2022-09-04T01:33:00;16.10;99.90
983;DHT22;480;48.124;11.578;2022-09-04T01:35:34;16.20;99.90
983;DHT22;480;48.124;11.578;2022-09-04T01:38:11;16.20;99.90
983;DHT22;480;48.124;11.578;2022-09-04T01:40:44;16.20;99.90
983;DHT22;480;48.124;11.578;2022-09-04T01:43:16;16.10;99.90
983;DHT22;480;48.124;11.578;2022-09-04T01:46:07;16.10;99.90
983;DHT22;480;48.124;11.578;2022-09-04T01:48:44;16.10;99.90
983;DHT22;480;48.124;11.578;2022-09-04T01:51:21;16.10;99.90
983;DHT22;480;48.124;11.578;2022-09-04T01:53:58;16.10;99.90
983;DHT22;480;48.124;11.578;2022-09-04T01:56:36;16.00;99.90
983;DHT22;480;48.124;11.578;2022-09-04T01:59:10;16.00;99.90
983;DHT22;480;48.124;11.578;2022-09-04T02:01:46;16.00;99.90
983;DHT22;480;48.124;11.578;2022-09-04T02:04:17;16.10;99.90
983;DHT22;480;48.124;11.578;2022-09-04T02:06:53;16.10;99.90
983;DHT22;480;48.124;11.578;2022-09-04T02:09:31;16.10;99.90
983;DHT22;480;48.124;11.578;2022-09-04T02:12:07;16.10;99.90
983;DHT22;480;48.124;11.578;2022-09-04T02:14:40;16.10;99.90
983;DHT22;480;48.124;11.578;2022-09-04T02:17:10;16.20;99.90
983;DHT22;480;48.124;11.578;2022-09-04T02:19:54;16.20;99.90
983;DHT22;480;48.124;11.578;2022-09-04T02:22:32;16.20;99.90
983;DHT22;480;48.124;11.578;2022-09-04T02:25:13;16.20;99.90
983;DHT22;480;48.124;11.578;2022-09-04T02:27:48;16.20;99.90
983;DHT22;480;48.124;11.578;2022-09-04T02:30:20;16.20;99.90
983;DHT22;480;48.124;11.578;2022-09-04T02:32:52;16.20;99.90
983;DHT22;480;48.124;11.578;2022-09-04T02:35:28;16.20;99.90
983;DHT22;480;48.124;11.578;2022-09-04T02:38:04;16.30;99.90
983;DHT22;480;48.124;11.578;2022-09-04T02:40:43;16.30;99.90
983;DHT22;480;48.124;11.578;2022-09-04T02:43:25;16.40;99.90
983;DHT22;480;48.124;11.578;2022-09-04T02:46:02;16.40;99.90
983;DHT22;480;48.124;11.578;2022-09-04T02:48:41;16.30;99.90
983;DHT22;480;48.124;11.578;2022-09-04T02:51:18;16.20;99.90
983;DHT22;480;48.124;11.578;2022-09-04T02:53:55;16.10;99.90
983;DHT22;480;48.124;11.578;2022-09-04T02:56:34;16.00;99.90
983;DHT22;480;48.124;11.578;2022-09-04T02:59:15;15.90;99.90
983;DHT22;480;48.124;11.578;2022-09-04T03:01:52;15.90;99.90
983;DHT22;480;48.124;11.578;2022-09-04T03:04:27;15.80;99.90
983;DHT22;480;48.124;11.578;2022-09-04T03:07:01;15.90;99.90
983;DHT22;480;48.124;11.578;2022-09-04T03:09:35;16.00;99.90
983;DHT22;480;48.124;11.578;2022-09-04T03:12:18;16.10;99.90
983;DHT22;480;48.124;11.578;2022-09-04T03:14:57;16.10;99.90
983;DHT22;480;48.124;11.578;2022-09-04T03:17:32;16.00;99.90
983;DHT22;480;48.124;11.578;2022-09-04T03:20:04;16.00;99.90
983;DHT22;480;48.124;11.578;2022-09-04T03:22:38;15.90;99.90
983;DHT22;480;48.124;11.578;2022-09-04T03:25:27;15.90;99.90
983;DHT22;480;48.124;11.578;2022-09-04T03:28:01;15.80;99.90
983;DHT22;480;48.124;11.578;2022-09-04T03:30:31;15.80;99.90
983;DHT22;480;48.124;11.578;2022-09-04T03:33:04;15.90;99.90
983;DHT22;480;48.124;11.578;2022-09-04T03:35:36;15.90;99.90
983;DHT22;480;48.124;11.578;2022-09-04T03:38:14;15.90;99.90
983;DHT22;480;48.124;11.578;2022-09-04T03:40:50;15.80;99.90
983;DHT22;480;48.124;11.578;2022-09-04T03:43:34;15.80;99.90
983;DHT22;480;48.124;11.578;2022-09-04T03:46:10;15.70;99.90
983;DHT22;480;48.124;11.578;2022-09-04T03:48:56;15.70;99.90
983;DHT22;480;48.124;11.578;2022-09-04T03:51:38;15.60;99.90
983;DHT22;480;48.124;11.578;2022-09-04T03:54:17;15.60;99.90
983;DHT22;480;48.124;11.578;2022-09-04T03:57:03;15.50;99.90
983;DHT22;480;48.124;11.578;2022-09-04T03:59:44;15.40;99.90
983;DHT22;480;48.124;11.578;2022-09-04T04:02:19;15.40;99.90
983;DHT22;480;48.124;11.578;2022-09-04T04:05:16;15.50;99.90
983;DHT22;480;48.124;11.578;2022-09-04T04:07:57;15.50;99.90
983;DHT22;480;48.124;11.578;2022-09-04T04:10:29;15.60;99.90
983;DHT22;480;48.124;11.578;2022-09-04T04:13:14;15.60;99.90
983;DHT22;480;48.124;11.578;2022-09-04T04:15:55;15.60;99.90
983;DHT22;480;48.124;11.578;2022-09-04T04:21:21;15.60;99.90
983;DHT22;480;48.124;11.578;2022-09-04T04:24:09;15.60;99.90
983;DHT22;480;48.124;11.578;2022-09-04T04:26:55;15.60;99.90
983;DHT22;480;48.124;11.578;2022-09-04T04:32:42;15.60;99.90
983;DHT22;480;48.124;11.578;2022-09-04T04:35:19;15.70;99.90
983;DHT22;480;48.124;11.578;2022-09-04T04:38:11;15.60;99.90
983;DHT22;480;48.124;11.578;2022-09-04T04:41:12;15.60;99.90
983;DHT22;480;48.124;11.578;2022-09-04T04:43:55;15.60;99.90
983;DHT22;480;48.124;11.578;2022-09-04T04:46:33;15.60;99.90
983;DHT22;480;48.124;11.578;2022-09-04T04:49:17;15.60;99.90
983;DHT22;480;48.124;11.578;2022-09-04T04:52:02;15.60;99.90
983;DHT22;480;48.124;11.578;2022-09-04T04:55:09;15.60;99.90
983;DHT22;480;48.124;11.578;2022-09-04T04:57:47;15.70;99.90
983;DHT22;480;48.124;11.578;2022-09-04T05:00:20;15.80;99.90
983;DHT22;480;48.124;11.578;2022-09-04T05:02:57;15.70;99.90
983;DHT22;480;48.124;11.578;2022-09-04T05:05:45;15.70;99.90
983;DHT22;480;48.124;11.578;2022-09-04T05:08:21;15.70;99.90
983;DHT22;480;48.124;11.578;2022-09-04T05:10:55;15.60;99.90
983;DHT22;480;48.124;11.578;2022-09-04T05:13:32;15.70;99.90
983;DHT22;480;48.124;11.578;2022-09-04T05:16:07;15.70;99.90
983;DHT22;480;48.124;11.578;2022-09-04T05:18:44;15.70;99.90
983;DHT22;480;48.124;11.578;2022-09-04T05:21:20;15.70;99.90
983;DHT22;480;48.124;11.578;2022-09-04T05:23:53;15.70;99.90
983;DHT22;480;48.124;11.578;2022-09-04T05:26:29;15.70;99.90
983;DHT22;480;48.124;11.578;2022-09-04T05:29:03;15.70;99.90
983;DHT22;480;48.124;11.578;2022-09-04T05:31:42;15.70;99.90
983;DHT22;480;48.124;11.578;2022-09-04T05:34:17;15.80;99.90
983;DHT22;480;48.124;11.578;2022-09-04T05:36:51;15.90;99.90
983;DHT22;480;48.124;11.578;2022-09-04T05:39:27;15.90;99.90
983;DHT22;480;48.124;11.578;2022-09-04T05:42:30;15.90;99.90
983;DHT22;480;48.124;11.578;2022-09-04T05:45:09;16.00;99.90
983;DHT22;480;48.124;11.578;2022-09-04T05:47:44;16.00;99.90
983;DHT22;480;48.124;11.578;2022-09-04T05:50:35;16.00;99.90
983;DHT22;480;48.124;11.578;2022-09-04T05:59:28;16.00;99.90
983;DHT22;480;48.124;11.578;2022-09-04T06:02:09;16.00;99.90
983;DHT22;480;48.124;11.578;2022-09-04T06:07:39;16.00;99.90
983;DHT22;480;48.124;11.578;2022-09-04T06:10:14;16.00;99.90
983;DHT22;480;48.124;11.578;2022-09-04T06:13:14;16.10;99.90
983;DHT22;480;48.124;11.578;2022-09-04T06:15:53;16.20;99.90
983;DHT22;480;48.124;11.578;2022-09-04T06:18:44;16.10;99.90
983;DHT22;480;48.124;11.578;2022-09-04T06:27:35;16.40;99.90
983;DHT22;480;48.124;11.578;2022-09-04T06:30:07;16.40;99.90
983;DHT22;480;48.124;11.578;2022-09-04T06:33:01;16.60;99.90
983;DHT22;480;48.124;11.578;2022-09-04T06:38:40;16.60;99.90
983;DHT22;480;48.124;11.578;2022-09-04T06:41:25;16.60;99.90
983;DHT22;480;48.124;11.578;2022-09-04T06:43:59;16.70;99.90
983;DHT22;480;48.124;11.578;2022-09-04T06:46:33;16.90;99.90
983;DHT22;480;48.124;11.578;2022-09-04T06:49:08;16.90;99.90
983;DHT22;480;48.124;11.578;2022-09-04T06:51:50;16.90;99.90
983;DHT22;480;48.124;11.578;2022-09-04T06:54:31;17.00;99.90
983;DHT22;480;48.124;11.578;2022-09-04T06:57:18;17.10;99.90
983;DHT22;480;48.124;11.578;2022-09-04T07:00:08;17.40;99.90
983;DHT22;480;48.124;11.578;2022-09-04T07:05:51;17.60;99.90
983;DHT22;480;48.124;11.578;2022-09-04T07:08:29;17.80;99.90
983;DHT22;480;48.124;11.578;2022-09-04T07:11:07;17.80;99.90
983;DHT22;480;48.124;11.578;2022-09-04T07:13:55;17.90;99.90
983;DHT22;480;48.124;11.578;2022-09-04T07:16:38;18.00;99.90
983;DHT22;480;48.124;11.578;2022-09-04T07:22:16;18.30;99.90
983;DHT22;480;48.124;11.578;2022-09-04T07:25:10;18.30;99.90
983;DHT22;480;48.124;11.578;2022-09-04T07:27:49;18.40;99.90
983;DHT22;480;48.124;11.578;2022-09-04T07:30:22;18.60;99.90
983;DHT22;480;48.124;11.578;2022-09-04T07:32:53;18.60;99.90
983;DHT22;480;48.124;11.578;2022-09-04T07:35:28;18.70;99.90
983;DHT22;480;48.124;11.578;2022-09-04T07:38:05;18.70;99.90
983;DHT22;480;48.124;11.578;2022-09-04T07:40:38;19.00;99.90
983;DHT22;480;48.124;11.578;2022-09-04T07:43:12;19.10;99.90
983;DHT22;480;48.124;11.578;2022-09-04T07:45:43;19.30;99.90
983;DHT22;480;48.124;11.578;2022-09-04T07:48:20;19.30;99.90
983;DHT22;480;48.124;11.578;2022-09-04T07:50:56;19.30;99.90
983;DHT22;480;48.124;11.578;2022-09-04T07:56:52;19.40;99.90
983;DHT22;480;48.124;11.578;2022-09-04T07:59:34;19.50;99.90
983;DHT22;480;48.124;11.578;2022-09-04T08:02:25;19.80;99.90
983;DHT22;480;48.124;11.578;2022-09-04T08:05:17;20.00;99.90
983;DHT22;480;48.124;11.578;2022-09-04T08:08:10;20.10;99.90
983;DHT22;480;48.124;11.578;2022-09-04T08:10:50;20.10;99.90
983;DHT22;480;48.124;11.578;2022-09-04T08:13:36;20.20;99.90
983;DHT22;480;48.124;11.578;2022-09-04T08:16:15;20.10;99.90
983;DHT22;480;48.124;11.578;2022-09-04T08:18:58;20.10;99.90
983;DHT22;480;48.124;11.578;2022-09-04T08:21:28;20.20;99.90
983;DHT22;480;48.124;11.578;2022-09-04T08:24:18;20.30;99.90
983;DHT22;480;48.124;11.578;2022-09-04T08:26:59;20.40;99.90
983;DHT22;480;48.124;11.578;2022-09-04T08:30:00;20.50;99.90
983;DHT22;480;48.124;11.578;2022-09-04T08:35:39;20.80;99.90
983;DHT22;480;48.124;11.578;2022-09-04T08:38:34;20.90;99.90
983;DHT22;480;48.124;11.578;2022-09-04T08:41:41;21.00;99.90
983;DHT22;480;48.124;11.578;2022-09-04T08:44:59;20.90;99.90
983;DHT22;480;48.124;11.578;2022-09-04T08:53:59;20.70;99.90
983;DHT22;480;48.124;11.578;2022-09-04T08:56:34;20.80;99.90
983;DHT22;480;48.124;11.578;2022-09-04T09:15:05;21.50;99.90
983;DHT22;480;48.124;11.578;2022-09-04T09:17:38;21.80;99.90
983;DHT22;480;48.124;11.578;2022-09-04T09:20:23;21.80;99.90
983;DHT22;480;48.124;11.578;2022-09-04T09:23:16;22.00;99.90
983;DHT22;480;48.124;11.578;2022-09-04T09:25:51;21.90;99.90
983;DHT22;480;48.124;11.578;2022-09-04T09:32:15;21.80;99.90
983;DHT22;480;48.124;11.578;2022-09-04T09:41:16;22.10;99.90
983;DHT22;480;48.124;11.578;2022-09-04T09:44:21;22.20;99.90
983;DHT22;480;48.124;11.578;2022-09-04T09:47:30;22.30;99.90
983;DHT22;480;48.124;11.578;2022-09-04T09:50:16;22.40;99.90
983;DHT22;480;48.124;11.578;2022-09-04T09:53:39;22.60;99.90
983;DHT22;480;48.124;11.578;2022-09-04T09:56:34;22.40;99.90
983;DHT22;480;48.124;11.578;2022-09-04T09:59:51;22.40;99.90
983;DHT22;480;48.124;11.578;2022-09-04T10:12:04;22.40;99.90
983;DHT22;480;48.124;11.578;2022-09-04T10:14:49;22.30;99.90
983;DHT22;480;48.124;11.578;2022-09-04T10:17:49;22.50;99.90
983;DHT22;480;48.124;11.578;2022-09-04T10:20:40;22.70;99.90
983;DHT22;480;48.124;11.578;2022-09-04T10:23:30;22.90;99.90
983;DHT22;480;48.124;11.578;2022-09-04T10:32:15;22.90;99.90
983;DHT22;480;48.124;11.578;2022-09-04T10:35:07;22.70;99.90
983;DHT22;480;48.124;11.578;2022-09-04T10:37:49;22.70;99.90
983;DHT22;480;48.124;11.578;2022-09-04T10:40:25;22.80;99.90
983;DHT22;480;48.124;11.578;2022-09-04T10:43:21;22.90;99.90
983;DHT22;480;48.124;11.578;2022-09-04T10:46:00;23.00;99.90
983;DHT22;480;48.124;11.578;2022-09-04T10:51:41;23.70;99.90
983;DHT22;480;48.124;11.578;2022-09-04T10:54:29;23.90;99.90
983;DHT22;480;48.124;11.578;2022-09-04T10:57:09;24.20;99.90
983;DHT22;480;48.124;11.578;2022-09-04T10:59:53;24.50;99.90
983;DHT22;480;48.124;11.578;2022-09-04T11:05:56;24.70;99.90
983;DHT22;480;48.124;11.578;2022-09-04T11:11:39;25.10;99.90
983;DHT22;480;48.124;11.578;2022-09-04T11:17:49;25.00;99.90
983;DHT22;480;48.124;11.578;2022-09-04T11:20:40;25.00;99.90
983;DHT22;480;48.124;11.578;2022-09-04T11:23:42;24.80;99.90
983;DHT22;480;48.124;11.578;2022-09-04T11:27:05;24.70;99.90
983;DHT22;480;48.124;11.578;2022-09-04T11:29:48;24.40;99.90
983;DHT22;480;48.124;11.578;2022-09-04T11:32:48;24.20;99.90
983;DHT22;480;48.124;11.578;2022-09-04T11:35:44;23.90;99.90
983;DHT22;480;48.124;11.578;2022-09-04T11:38:30;23.70;99.90
983;DHT22;480;48.124;11.578;2022-09-04T11:41:57;23.50;99.90
983;DHT22;480;48.124;11.578;2022-09-04T11:44:53;23.30;99.90
983;DHT22;480;48.124;11.578;2022-09-04T11:48:01;23.50;99.90
983;DHT22;480;48.124;11.578;2022-09-04T11:50:53;24.10;99.90
983;DHT22;480;48.124;11.578;2022-09-04T11:53:37;24.80;99.90
983;DHT22;480;48.124;11.578;2022-09-04T11:56:37;25.00;99.90
983;DHT22;480;48.124;11.578;2022-09-04T11:59:19;25.00;99.90
983;DHT22;480;48.124;11.578;2022-09-04T12:02:09;24.90;99.90
983;DHT22;480;48.124;11.578;2022-09-04T12:05:02;25.30;99.90
983;DHT22;480;48.124;11.578;2022-09-04T12:07:42;25.70;99.90
983;DHT22;480;48.124;11.578;2022-09-04T12:10:30;26.30;99.90
983;DHT22;480;48.124;11.578;2022-09-04T12:16:35;26.70;99.90
983;DHT22;480;48.124;11.578;2022-09-04T12:29:21;27.00;99.90
983;DHT22;480;48.124;11.578;2022-09-04T12:32:13;27.00;99.90
983;DHT22;480;48.124;11.578;2022-09-04T12:35:01;27.50;99.90
983;DHT22;480;48.124;11.578;2022-09-04T12:37:53;27.60;99.90
983;DHT22;480;48.124;11.578;2022-09-04T12:40:31;27.50;99.90
983;DHT22;480;48.124;11.578;2022-09-04T12:43:11;27.30;99.90
983;DHT22;480;48.124;11.578;2022-09-04T12:45:47;27.00;99.90
983;DHT22;480;48.124;11.578;2022-09-04T12:48:26;26.90;99.90
983;DHT22;480;48.124;11.578;2022-09-04T12:51:02;26.70;99.90
983;DHT22;480;48.124;11.578;2022-09-04T12:53:56;26.60;99.90
983;DHT22;480;48.124;11.578;2022-09-04T12:56:39;26.50;99.90
983;DHT22;480;48.124;11.578;2022-09-04T12:59:31;26.20;99.90
983;DHT22;480;48.124;11.578;2022-09-04T13:02:06;26.10;99.90
983;DHT22;480;48.124;11.578;2022-09-04T13:04:44;26.00;99.90
983;DHT22;480;48.124;11.578;2022-09-04T13:07:28;26.40;99.90
983;DHT22;480;48.124;11.578;2022-09-04T13:10:09;26.20;99.90
983;DHT22;480;48.124;11.578;2022-09-04T13:12:47;26.40;99.90
983;DHT22;480;48.124;11.578;2022-09-04T13:15:27;26.50;99.90
983;DHT22;480;48.124;11.578;2022-09-04T13:18:15;26.10;99.90
983;DHT22;480;48.124;11.578;2022-09-04T13:20:51;26.00;99.90
983;DHT22;480;48.124;11.578;2022-09-04T13:23:35;26.40;99.90
983;DHT22;480;48.124;11.578;2022-09-04T13:26:23;26.50;99.90
983;DHT22;480;48.124;11.578;2022-09-04T13:29:04;26.50;99.90
983;DHT22;480;48.124;11.578;2022-09-04T13:34:52;26.50;99.90
983;DHT22;480;48.124;11.578;2022-09-04T13:37:31;26.40;99.90
983;DHT22;480;48.124;11.578;2022-09-04T13:45:58;25.70;99.90
983;DHT22;480;48.124;11.578;2022-09-04T13:48:35;25.50;99.90
983;DHT22;480;48.124;11.578;2022-09-04T13:51:09;25.60;99.90
983;DHT22;480;48.124;11.578;2022-09-04T13:53:50;25.60;99.90
983;DHT22;480;48.124;11.578;2022-09-04T13:56:22;25.80;99.90
983;DHT22;480;48.124;11.578;2022-09-04T13:58:56;26.20;99.90
983;DHT22;480;48.124;11.578;2022-09-04T14:01:25;26.50;99.90
983;DHT22;480;48.124;11.578;2022-09-04T14:03:56;26.80;99.90
983;DHT22;480;48.124;11.578;2022-09-04T14:06:28;26.70;99.90
983;DHT22;480;48.124;11.578;2022-09-04T14:08:57;27.00;99.90
983;DHT22;480;48.124;11.578;2022-09-04T14:12:06;27.20;99.90
983;DHT22;480;48.124;11.578;2022-09-04T14:17:45;27.30;99.90
983;DHT22;480;48.124;11.578;2022-09-04T14:20:20;27.40;99.90
983;DHT22;480;48.124;11.578;2022-09-04T14:22:56;27.20;99.90
983;DHT22;480;48.124;11.578;2022-09-04T14:25:28;27.00;99.90
983;DHT22;480;48.124;11.578;2022-09-04T14:28:00;26.80;99.90
983;DHT22;480;48.124;11.578;2022-09-04T14:30:32;26.50;99.90
983;DHT22;480;48.124;11.578;2022-09-04T14:33:15;26.40;99.90
983;DHT22;480;48.124;11.578;2022-09-04T14:35:52;26.40;99.90
983;DHT22;480;48.124;11.578;2022-09-04T14:41:36;26.70;99.90
983;DHT22;480;48.124;11.578;2022-09-04T14:44:21;26.60;99.90
983;DHT22;480;48.124;11.578;2022-09-04T14:47:01;26.40;99.90
983;DHT22;480;48.124;11.578;2022-09-04T14:49:40;26.40;99.90
983;DHT22;480;48.124;11.578;2022-09-04T14:52:12;26.20;99.90
983;DHT22;480;48.124;11.578;2022-09-04T14:54:46;26.50;99.90
983;DHT22;480;48.124;11.578;2022-09-04T14:57:20;26.60;99.90
983;DHT22;480;48.124;11.578;2022-09-04T14:59:58;26.90;99.90
983;DHT22;480;48.124;11.578;2022-09-04T15:02:32;26.80;99.90
983;DHT22;480;48.124;11.578;2022-09-04T15:05:08;26.80;99.90
983;DHT22;480;48.124;11.578;2022-09-04T15:07:52;26.90;99.90
983;DHT22;480;48.124;11.578;2022-09-04T15:10:23;27.00;99.90
983;DHT22;480;48.124;11.578;2022-09-04T15:12:56;27.00;99.90
983;DHT22;480;48.124;11.578;2022-09-04T15:15:30;26.90;99.90
983;DHT22;480;48.124;11.578;2022-09-04T15:18:02;27.10;99.90
983;DHT22;480;48.124;11.578;2022-09-04T15:20:37;27.10;99.90
983;DHT22;480;48.124;11.578;2022-09-04T15:23:13;27.10;99.90
983;DHT22;480;48.124;11.578;2022-09-04T15:25:48;27.50;99.90
983;DHT22;480;48.124;11.578;2022-09-04T15:28:21;27.90;99.90
983;DHT22;480;48.124;11.578;2022-09-04T15:31:10;28.20;99.00
983;DHT22;480;48.124;11.578;2022-09-04T15:33:38;28.20;99.60
983;DHT22;480;48.124;11.578;2022-09-04T15:36:13;28.30;99.90
983;DHT22;480;48.124;11.578;2022-09-04T15:38:47;28.20;99.00
983;DHT22;480;48.124;11.578;2022-09-04T15:41:18;28.20;98.10
983;DHT22;480;48.124;11.578;2022-09-04T15:43:50;28.00;98.80
983;DHT22;480;48.124;11.578;2022-09-04T15:46:25;27.80;98.80
983;DHT22;480;48.124;11.578;2022-09-04T15:48:58;27.60;99.70
983;DHT22;480;48.124;11.578;2022-09-04T15:51:39;27.30;99.90
983;DHT22;480;48.124;11.578;2022-09-04T15:54:24;27.20;99.90
983;DHT22;480;48.124;11.578;2022-09-04T15:57:01;27.10;99.90
983;DHT22;480;48.124;11.578;2022-09-04T15:59:38;26.80;99.90
983;DHT22;480;48.124;11.578;2022-09-04T16:02:17;26.40;99.90
983;DHT22;480;48.124;11.578;2022-09-04T16:04:51;26.30;99.90
983;DHT22;480;48.124;11.578;2022-09-04T16:07:34;26.00;99.90
983;DHT22;480;48.124;11.578;2022-09-04T16:10:15;25.90;99.90
983;DHT22;480;48.124;11.578;2022-09-04T16:12:49;25.70;99.90
983;DHT22;480;48.124;11.578;2022-09-04T16:15:22;25.70;99.90
983;DHT22;480;48.124;11.578;2022-09-04T16:17:53;25.50;99.90
983;DHT22;480;48.124;11.578;2022-09-04T16:20:25;25.30;99.90
983;DHT22;480;48.124;11.578;2022-09-04T16:22:58;25.20;99.90
983;DHT22;480;48.124;11.578;2022-09-04T16:25:30;25.10;99.90
983;DHT22;480;48.124;11.578;2022-09-04T16:28:00;25.10;99.90
983;DHT22;480;48.124;11.578;2022-09-04T16:30:35;24.90;99.90
983;DHT22;480;48.124;11.578;2022-09-04T16:33:04;24.90;99.90
983;DHT22;480;48.124;11.578;2022-09-04T16:35:34;24.70;99.90
983;DHT22;480;48.124;11.578;2022-09-04T16:38:07;24.60;99.90
983;DHT22;480;48.124;11.578;2022-09-04T16:40:44;24.50;99.90
983;DHT22;480;48.124;11.578;2022-09-04T16:43:22;24.40;99.90
983;DHT22;480;48.124;11.578;2022-09-04T16:46:02;24.30;99.90
983;DHT22;480;48.124;11.578;2022-09-04T16:48:36;24.20;99.90
983;DHT22;480;48.124;11.578;2022-09-04T16:51:08;24.10;99.90
983;DHT22;480;48.124;11.578;2022-09-04T16:53:42;24.00;99.90
983;DHT22;480;48.124;11.578;2022-09-04T16:56:18;24.00;99.90
983;DHT22;480;48.124;11.578;2022-09-04T16:58:51;24.00;99.90
983;DHT22;480;48.124;11.578;2022-09-04T17:01:24;23.90;99.90
983;DHT22;480;48.124;11.578;2022-09-04T17:06:57;23.90;99.90
983;DHT22;480;48.124;11.578;2022-09-04T17:09:39;23.80;99.90
983;DHT22;480;48.124;11.578;2022-09-04T17:12:21;23.80;99.90
983;DHT22;480;48.124;11.578;2022-09-04T17:14:54;23.70;99.90
983;DHT22;480;48.124;11.578;2022-09-04T17:17:24;23.70;99.90
983;DHT22;480;48.124;11.578;2022-09-04T17:20:04;23.70;99.90
983;DHT22;480;48.124;11.578;2022-09-04T17:22:39;23.60;99.90
983;DHT22;480;48.124;11.578;2022-09-04T17:25:17;23.50;99.90
983;DHT22;480;48.124;11.578;2022-09-04T17:27:50;23.40;99.90
983;DHT22;480;48.124;11.578;2022-09-04T17:30:28;23.40;99.90
983;DHT22;480;48.124;11.578;2022-09-04T17:32:59;23.30;99.90
983;DHT22;480;48.124;11.578;2022-09-04T17:35:33;23.20;99.90
983;DHT22;480;48.124;11.578;2022-09-04T17:38:07;23.20;99.90
983;DHT22;480;48.124;11.578;2022-09-04T17:40:49;23.20;99.90
983;DHT22;480;48.124;11.578;2022-09-04T17:43:25;23.10;99.90
983;DHT22;480;48.124;11.578;2022-09-04T17:46:07;23.10;99.90
983;DHT22;480;48.124;11.578;2022-09-04T17:48:40;23.00;99.90
983;DHT22;480;48.124;11.578;2022-09-04T17:51:15;23.00;99.90
983;DHT22;480;48.124;11.578;2022-09-04T17:53:47;22.90;99.90
983;DHT22;480;48.124;11.578;2022-09-04T17:56:23;22.80;99.90
983;DHT22;480;48.124;11.578;2022-09-04T17:58:55;22.80;99.90
983;DHT22;480;48.124;11.578;2022-09-04T18:01:27;22.80;99.90
983;DHT22;480;48.124;11.578;2022-09-04T18:04:19;22.70;99.90
983;DHT22;480;48.124;11.578;2022-09-04T18:06:52;22.60;99.90
983;DHT22;480;48.124;11.578;2022-09-04T18:09:24;22.60;99.90
983;DHT22;480;48.124;11.578;2022-09-04T18:12:01;22.50;99.90
983;DHT22;480;48.124;11.578;2022-09-04T18:14:40;22.50;99.90
983;DHT22;480;48.124;11.578;2022-09-04T18:17:13;22.40;99.90
983;DHT22;480;48.124;11.578;2022-09-04T18:19:43;22.30;99.90
983;DHT22;480;48.124;11.578;2022-09-04T18:22:22;22.30;99.90
983;DHT22;480;48.124;11.578;2022-09-04T18:24:56;22.20;99.90
983;DHT22;480;48.124;11.578;2022-09-04T18:27:34;22.10;99.90
983;DHT22;480;48.124;11.578;2022-09-04T18:30:04;22.10;99.90
983;DHT22;480;48.124;11.578;2022-09-04T18:32:45;22.00;99.90
983;DHT22;480;48.124;11.578;2022-09-04T18:35:18;21.90;99.90
983;DHT22;480;48.124;11.578;2022-09-04T18:37:51;21.90;99.90
983;DHT22;480;48.124;11.578;2022-09-04T18:40:22;21.80;99.90
983;DHT22;480;48.124;11.578;2022-09-04T18:42:57;21.70;99.90
983;DHT22;480;48.124;11.578;2022-09-04T18:45:30;21.70;99.90
983;DHT22;480;48.124;11.578;2022-09-04T18:48:02;21.70;99.90
983;DHT22;480;48.124;11.578;2022-09-04T18:50:31;21.70;99.90
983;DHT22;480;48.124;11.578;2022-09-04T18:53:04;21.60;99.90
983;DHT22;480;48.124;11.578;2022-09-04T18:55:40;21.60;99.90
983;DHT22;480;48.124;11.578;2022-09-04T18:58:37;21.50;99.90
983;DHT22;480;48.124;11.578;2022-09-04T19:01:12;21.50;99.90
983;DHT22;480;48.124;11.578;2022-09-04T19:03:44;21.40;99.90
983;DHT22;480;48.124;11.578;2022-09-04T19:06:14;21.40;99.90
983;DHT22;480;48.124;11.578;2022-09-04T19:08:46;21.40;99.90
983;DHT22;480;48.124;11.578;2022-09-04T19:11:21;21.30;99.90
983;DHT22;480;48.124;11.578;2022-09-04T19:13:54;21.30;99.90
983;DHT22;480;48.124;11.578;2022-09-04T19:16:28;21.30;99.90
983;DHT22;480;48.124;11.578;2022-09-04T19:19:01;21.20;99.90
983;DHT22;480;48.124;11.578;2022-09-04T19:21:34;21.20;99.90
983;DHT22;480;48.124;11.578;2022-09-04T19:24:11;21.10;99.90
983;DHT22;480;48.124;11.578;2022-09-04T19:26:56;21.00;99.90
983;DHT22;480;48.124;11.578;2022-09-04T19:29:35;21.00;99.90
983;DHT22;480;48.124;11.578;2022-09-04T19:32:06;21.00;99.90
983;DHT22;480;48.124;11.578;2022-09-04T19:34:39;20.90;99.90
983;DHT22;480;48.124;11.578;2022-09-04T19:37:10;20.90;99.90
983;DHT22;480;48.124;11.578;2022-09-04T19:39:42;20.90;99.90
983;DHT22;480;48.124;11.578;2022-09-04T19:42:19;20.90;99.90
983;DHT22;480;48.124;11.578;2022-09-04T19:44:52;20.80;99.90
983;DHT22;480;48.124;11.578;2022-09-04T19:47:32;20.80;99.90
983;DHT22;480;48.124;11.578;2022-09-04T19:50:12;20.80;99.90
983;DHT22;480;48.124;11.578;2022-09-04T19:52:43;20.70;99.90
983;DHT22;480;48.124;11.578;2022-09-04T19:55:15;20.70;99.90
983;DHT22;480;48.124;11.578;2022-09-04T19:57:44;20.70;99.90